sensor_id;sensor_type;location;lat;lon;timestamp;P1;durP1;ratioP1;P2;durP2;ratioP2
76548;SDS011;65391;52.068;4.542;2023-04-19T00:01:38;12.8;;;7.5;;
76548;SDS011;65391;52.068;4.542;2023-04-19T00:04:03;12;;;6.8;;
76548;SDS011;65391;52.068;4.542;2023-04-19T00:06:28;12;;;6.8;;
76548;SDS011;65391;52.068;4.542;2023-04-19T00:08:53;12;;;6.8;;
76548;SDS011;65391;52.068;4.542;2023-04-19T00:11:18;12;;;6.8;;
76548;SDS011;65391;52.068;4.542;2023-04-19T00:13:43;12;;;6.8;;
76548;SDS011;65391;52.068;4.542;2023-04-19T00:16:08;10.9;;;7;;
76548;SDS011;65391;52.068;4.542;2023-04-19T00:18:33;10.9;;;7;;
76548;SDS011;65391;52.068;4.542;2023-04-19T00:20:58;10.9;;;7;;
76548;SDS011;65391;52.068;4.542;2023-04-19T00:23:23;10.9;;;7;;
76548;SDS011;65391;52.068;4.542;2023-04-19T00:25:48;12;;;7.5;;
76548;SDS011;65391;52.068;4.542;2023-04-19T00:28:13;12;;;7.5;;
76548;SDS011;65391;52.068;4.542;2023-04-19T00:30:38;12;;;7.5;;
76548;SDS011;65391;52.068;4.542;2023-04-19T00:33:03;12;;;7.5;;
76548;SDS011;65391;52.068;4.542;2023-04-19T00:35:28;10.8;;;6.6;;
76548;SDS011;65391;52.068;4.542;2023-04-19T00:37:53;10.8;;;6.6;;
76548;SDS011;65391;52.068;4.542;2023-04-19T00:40:18;10.8;;;6.6;;
76548;SDS011;65391;52.068;4.542;2023-04-19T00:42:43;10.8;;;6.6;;
76548;SDS011;65391;52.068;4.542;2023-04-19T00:45:09;12.7;;;7;;
76548;SDS011;65391;52.068;4.542;2023-04-19T00:47:33;12.7;;;7;;
76548;SDS011;65391;52.068;4.542;2023-04-19T00:49:58;12.7;;;7;;
76548;SDS011;65391;52.068;4.542;2023-04-19T00:52:23;12.7;;;7;;
76548;SDS011;65391;52.068;4.542;2023-04-19T00:54:48;12.4;;;6.9;;
76548;SDS011;65391;52.068;4.542;2023-04-19T00:57:13;12.4;;;6.9;;
76548;SDS011;65391;52.068;4.542;2023-04-19T00:59:38;12.4;;;6.9;;
76548;SDS011;65391;52.068;4.542;2023-04-19T01:02:03;12.4;;;6.9;;
76548;SDS011;65391;52.068;4.542;2023-04-19T01:04:28;11.2;;;7.4;;
76548;SDS011;65391;52.068;4.542;2023-04-19T01:06:53;11.2;;;7.4;;
76548;SDS011;65391;52.068;4.542;2023-04-19T01:09:18;11.2;;;7.4;;
76548;SDS011;65391;52.068;4.542;2023-04-19T01:11:43;11.2;;;7.4;;
76548;SDS011;65391;52.068;4.542;2023-04-19T01:14:08;18;;;7.4;;
76548;SDS011;65391;52.068;4.542;2023-04-19T01:16:34;18;;;7.4;;
76548;SDS011;65391;52.068;4.542;2023-04-19T01:18:58;18;;;7.4;;
76548;SDS011;65391;52.068;4.542;2023-04-19T01:21:23;18;;;7.4;;
76548;SDS011;65391;52.068;4.542;2023-04-19T01:23:48;18;;;7.4;;
76548;SDS011;65391;52.068;4.542;2023-04-19T01:26:13;13.1;;;7.2;;
76548;SDS011;65391;52.068;4.542;2023-04-19T01:28:38;13.1;;;7.2;;
76548;SDS011;65391;52.068;4.542;2023-04-19T01:31:03;13.1;;;7.2;;
76548;SDS011;65391;52.068;4.542;2023-04-19T01:33:28;13.1;;;7.2;;
76548;SDS011;65391;52.068;4.542;2023-04-19T01:35:53;12.4;;;7.6;;
76548;SDS011;65391;52.068;4.542;2023-04-19T01:38:18;12.4;;;7.6;;
76548;SDS011;65391;52.068;4.542;2023-04-19T01:40:43;12.4;;;7.6;;
76548;SDS011;65391;52.068;4.542;2023-04-19T01:43:13;12.4;;;7.6;;
76548;SDS011;65391;52.068;4.542;2023-04-19T01:45:33;13.4;;;7.3;;
76548;SDS011;65391;52.068;4.542;2023-04-19T01:47:58;13.4;;;7.3;;
76548;SDS011;65391;52.068;4.542;2023-04-19T01:50:23;13.4;;;7.3;;
76548;SDS011;65391;52.068;4.542;2023-04-19T01:52:48;13.4;;;7.3;;
76548;SDS011;65391;52.068;4.542;2023-04-19T01:55:13;12.6;;;8;;
76548;SDS011;65391;52.068;4.542;2023-04-19T01:57:38;12.6;;;8;;
76548;SDS011;65391;52.068;4.542;2023-04-19T02:00:04;12.6;;;8;;
76548;SDS011;65391;52.068;4.542;2023-04-19T02:02:28;12.6;;;8;;
76548;SDS011;65391;52.068;4.542;2023-04-19T02:04:53;12;;;7.4;;
76548;SDS011;65391;52.068;4.542;2023-04-19T02:07:18;12;;;7.4;;
76548;SDS011;65391;52.068;4.542;2023-04-19T02:09:43;12;;;7.4;;
76548;SDS011;65391;52.068;4.542;2023-04-19T02:12:08;12;;;7.4;;
76548;SDS011;65391;52.068;4.542;2023-04-19T02:14:34;18.6;;;9;;
76548;SDS011;65391;52.068;4.542;2023-04-19T02:16:58;18.6;;;9;;
76548;SDS011;65391;52.068;4.542;2023-04-19T02:19:23;18.6;;;9;;
76548;SDS011;65391;52.068;4.542;2023-04-19T02:21:48;18.6;;;9;;
76548;SDS011;65391;52.068;4.542;2023-04-19T02:24:13;14.7;;;8.5;;
76548;SDS011;65391;52.068;4.542;2023-04-19T02:26:38;14.7;;;8.5;;
76548;SDS011;65391;52.068;4.542;2023-04-19T02:29:03;14.7;;;8.5;;
76548;SDS011;65391;52.068;4.542;2023-04-19T02:31:28;14.7;;;8.5;;
76548;SDS011;65391;52.068;4.542;2023-04-19T02:33:53;14.7;;;8.5;;
76548;SDS011;65391;52.068;4.542;2023-04-19T02:36:18;19.2;;;9.5;;
76548;SDS011;65391;52.068;4.542;2023-04-19T02:38:43;19.2;;;9.5;;
76548;SDS011;65391;52.068;4.542;2023-04-19T02:41:08;19.2;;;9.5;;
76548;SDS011;65391;52.068;4.542;2023-04-19T02:43:33;19.2;;;9.5;;
76548;SDS011;65391;52.068;4.542;2023-04-19T02:45:58;15.4;;;8.1;;
76548;SDS011;65391;52.068;4.542;2023-04-19T02:48:23;15.4;;;8.1;;
76548;SDS011;65391;52.068;4.542;2023-04-19T02:50:48;15.4;;;8.1;;
76548;SDS011;65391;52.068;4.542;2023-04-19T02:53:13;15.4;;;8.1;;
76548;SDS011;65391;52.068;4.542;2023-04-19T02:55:38;16.5;;;9.1;;
76548;SDS011;65391;52.068;4.542;2023-04-19T02:58:04;16.5;;;9.1;;
76548;SDS011;65391;52.068;4.542;2023-04-19T03:00:28;16.5;;;9.1;;
76548;SDS011;65391;52.068;4.542;2023-04-19T03:02:54;16.5;;;9.1;;
76548;SDS011;65391;52.068;4.542;2023-04-19T03:05:18;14.4;;;9.1;;
76548;SDS011;65391;52.068;4.542;2023-04-19T03:07:43;14.4;;;9.1;;
76548;SDS011;65391;52.068;4.542;2023-04-19T03:10:09;14.4;;;9.1;;
76548;SDS011;65391;52.068;4.542;2023-04-19T03:12:33;14.4;;;9.1;;
76548;SDS011;65391;52.068;4.542;2023-04-19T03:14:58;17.3;;;8.8;;
76548;SDS011;65391;52.068;4.542;2023-04-19T03:17:24;17.3;;;8.8;;
76548;SDS011;65391;52.068;4.542;2023-04-19T03:19:48;17.3;;;8.8;;
76548;SDS011;65391;52.068;4.542;2023-04-19T03:22:13;17.3;;;8.8;;
76548;SDS011;65391;52.068;4.542;2023-04-19T03:24:38;15.8;;;9.3;;
76548;SDS011;65391;52.068;4.542;2023-04-19T03:27:04;15.8;;;9.3;;
76548;SDS011;65391;52.068;4.542;2023-04-19T03:29:28;15.8;;;9.3;;
76548;SDS011;65391;52.068;4.542;2023-04-19T03:31:53;15.8;;;9.3;;
76548;SDS011;65391;52.068;4.542;2023-04-19T03:34:18;14.4;;;9;;
76548;SDS011;65391;52.068;4.542;2023-04-19T03:36:43;14.4;;;9;;
76548;SDS011;65391;52.068;4.542;2023-04-19T03:39:08;14.4;;;9;;
76548;SDS011;65391;52.068;4.542;2023-04-19T03:41:34;14.4;;;9;;
76548;SDS011;65391;52.068;4.542;2023-04-19T03:43:58;14.4;;;9;;
76548;SDS011;65391;52.068;4.542;2023-04-19T03:46:24;14.5;;;9.3;;
76548;SDS011;65391;52.068;4.542;2023-04-19T03:48:48;14.5;;;9.3;;
76548;SDS011;65391;52.068;4.542;2023-04-19T03:51:14;14.5;;;9.3;;
76548;SDS011;65391;52.068;4.542;2023-04-19T03:53:38;14.5;;;9.3;;
76548;SDS011;65391;52.068;4.542;2023-04-19T03:56:04;16.9;;;8.6;;
76548;SDS011;65391;52.068;4.542;2023-04-19T03:58:29;16.9;;;8.6;;
76548;SDS011;65391;52.068;4.542;2023-04-19T04:00:53;16.9;;;8.6;;
76548;SDS011;65391;52.068;4.542;2023-04-19T04:03:18;16.9;;;8.6;;
76548;SDS011;65391;52.068;4.542;2023-04-19T04:05:44;15.1;;;9.4;;
76548;SDS011;65391;52.068;4.542;2023-04-19T04:08:08;15.1;;;9.4;;
76548;SDS011;65391;52.068;4.542;2023-04-19T04:10:34;15.1;;;9.4;;
76548;SDS011;65391;52.068;4.542;2023-04-19T04:12:59;15.1;;;9.4;;
76548;SDS011;65391;52.068;4.542;2023-04-19T04:15:24;15.9;;;9.6;;
76548;SDS011;65391;52.068;4.542;2023-04-19T04:17:49;15.9;;;9.6;;
76548;SDS011;65391;52.068;4.542;2023-04-19T04:20:14;15.9;;;9.6;;
76548;SDS011;65391;52.068;4.542;2023-04-19T04:22:40;15.9;;;9.6;;
76548;SDS011;65391;52.068;4.542;2023-04-19T04:25:05;15.9;;;8.5;;
76548;SDS011;65391;52.068;4.542;2023-04-19T04:27:29;15.9;;;8.5;;
76548;SDS011;65391;52.068;4.542;2023-04-19T04:29:54;15.9;;;8.5;;
76548;SDS011;65391;52.068;4.542;2023-04-19T04:32:19;15.9;;;8.5;;
76548;SDS011;65391;52.068;4.542;2023-04-19T04:34:44;15.1;;;8.8;;
76548;SDS011;65391;52.068;4.542;2023-04-19T04:37:09;15.1;;;8.8;;
76548;SDS011;65391;52.068;4.542;2023-04-19T04:39:34;15.1;;;8.8;;
76548;SDS011;65391;52.068;4.542;2023-04-19T04:41:59;15.1;;;8.8;;
76548;SDS011;65391;52.068;4.542;2023-04-19T04:44:24;14.1;;;8.8;;
76548;SDS011;65391;52.068;4.542;2023-04-19T04:46:49;14.1;;;8.8;;
76548;SDS011;65391;52.068;4.542;2023-04-19T04:49:14;14.1;;;8.8;;
76548;SDS011;65391;52.068;4.542;2023-04-19T04:51:39;14.1;;;8.8;;
76548;SDS011;65391;52.068;4.542;2023-04-19T04:54:04;14.1;;;8.8;;
76548;SDS011;65391;52.068;4.542;2023-04-19T04:56:29;12.6;;;8.3;;
76548;SDS011;65391;52.068;4.542;2023-04-19T04:58:54;12.6;;;8.3;;
76548;SDS011;65391;52.068;4.542;2023-04-19T05:01:19;12.6;;;8.3;;
76548;SDS011;65391;52.068;4.542;2023-04-19T05:03:44;12.6;;;8.3;;
76548;SDS011;65391;52.068;4.542;2023-04-19T05:06:09;15.4;;;8.4;;
76548;SDS011;65391;52.068;4.542;2023-04-19T05:08:34;15.4;;;8.4;;
76548;SDS011;65391;52.068;4.542;2023-04-19T05:10:59;15.4;;;8.4;;
76548;SDS011;65391;52.068;4.542;2023-04-19T05:13:24;15.4;;;8.4;;
76548;SDS011;65391;52.068;4.542;2023-04-19T05:15:49;10.7;;;7.8;;
76548;SDS011;65391;52.068;4.542;2023-04-19T05:18:14;10.7;;;7.8;;
76548;SDS011;65391;52.068;4.542;2023-04-19T05:20:39;10.7;;;7.8;;
76548;SDS011;65391;52.068;4.542;2023-04-19T05:23:04;10.7;;;7.8;;
76548;SDS011;65391;52.068;4.542;2023-04-19T05:25:29;11.9;;;7.3;;
76548;SDS011;65391;52.068;4.542;2023-04-19T05:27:54;11.9;;;7.3;;
76548;SDS011;65391;52.068;4.542;2023-04-19T05:30:19;11.9;;;7.3;;
76548;SDS011;65391;52.068;4.542;2023-04-19T05:32:44;11.9;;;7.3;;
76548;SDS011;65391;52.068;4.542;2023-04-19T05:35:09;14.9;;;8.6;;
76548;SDS011;65391;52.068;4.542;2023-04-19T05:37:34;14.9;;;8.6;;
76548;SDS011;65391;52.068;4.542;2023-04-19T05:39:59;14.9;;;8.6;;
76548;SDS011;65391;52.068;4.542;2023-04-19T05:42:24;14.9;;;8.6;;
76548;SDS011;65391;52.068;4.542;2023-04-19T05:44:49;13.3;;;7.8;;
76548;SDS011;65391;52.068;4.542;2023-04-19T05:47:14;13.3;;;7.8;;
76548;SDS011;65391;52.068;4.542;2023-04-19T05:49:39;13.3;;;7.8;;
76548;SDS011;65391;52.068;4.542;2023-04-19T05:52:04;13.3;;;7.8;;
76548;SDS011;65391;52.068;4.542;2023-04-19T05:54:29;11.3;;;7.8;;
76548;SDS011;65391;52.068;4.542;2023-04-19T05:56:54;11.3;;;7.8;;
76548;SDS011;65391;52.068;4.542;2023-04-19T05:59:19;11.3;;;7.8;;
76548;SDS011;65391;52.068;4.542;2023-04-19T06:01:44;11.3;;;7.8;;
76548;SDS011;65391;52.068;4.542;2023-04-19T06:04:09;11.3;;;7.8;;
76548;SDS011;65391;52.068;4.542;2023-04-19T06:06:34;11.1;;;7.5;;
76548;SDS011;65391;52.068;4.542;2023-04-19T06:08:59;11.1;;;7.5;;
76548;SDS011;65391;52.068;4.542;2023-04-19T06:11:24;11.1;;;7.5;;
76548;SDS011;65391;52.068;4.542;2023-04-19T06:13:49;11.1;;;7.5;;
76548;SDS011;65391;52.068;4.542;2023-04-19T06:16:14;11;;;7.1;;
76548;SDS011;65391;52.068;4.542;2023-04-19T06:18:39;11;;;7.1;;
76548;SDS011;65391;52.068;4.542;2023-04-19T06:21:04;11;;;7.1;;
76548;SDS011;65391;52.068;4.542;2023-04-19T06:23:29;11;;;7.1;;
76548;SDS011;65391;52.068;4.542;2023-04-19T06:25:54;12.8;;;7.6;;
76548;SDS011;65391;52.068;4.542;2023-04-19T06:28:19;12.8;;;7.6;;
76548;SDS011;65391;52.068;4.542;2023-04-19T06:30:44;12.8;;;7.6;;
76548;SDS011;65391;52.068;4.542;2023-04-19T06:33:09;12.8;;;7.6;;
76548;SDS011;65391;52.068;4.542;2023-04-19T06:35:34;12;;;8.1;;
76548;SDS011;65391;52.068;4.542;2023-04-19T06:37:59;12;;;8.1;;
76548;SDS011;65391;52.068;4.542;2023-04-19T06:40:24;12;;;8.1;;
76548;SDS011;65391;52.068;4.542;2023-04-19T06:42:49;12;;;8.1;;
76548;SDS011;65391;52.068;4.542;2023-04-19T06:45:14;9.8;;;7.5;;
76548;SDS011;65391;52.068;4.542;2023-04-19T06:47:39;9.8;;;7.5;;
76548;SDS011;65391;52.068;4.542;2023-04-19T06:50:05;9.8;;;7.5;;
76548;SDS011;65391;52.068;4.542;2023-04-19T06:52:29;9.8;;;7.5;;
76548;SDS011;65391;52.068;4.542;2023-04-19T06:54:54;12.6;;;7.1;;
76548;SDS011;65391;52.068;4.542;2023-04-19T06:57:19;12.6;;;7.1;;
76548;SDS011;65391;52.068;4.542;2023-04-19T06:59:44;12.6;;;7.1;;
76548;SDS011;65391;52.068;4.542;2023-04-19T07:02:09;12.6;;;7.1;;
76548;SDS011;65391;52.068;4.542;2023-04-19T07:04:34;13.8;;;7;;
76548;SDS011;65391;52.068;4.542;2023-04-19T07:06:59;13.8;;;7;;
76548;SDS011;65391;52.068;4.542;2023-04-19T07:09:25;13.8;;;7;;
76548;SDS011;65391;52.068;4.542;2023-04-19T07:11:49;13.8;;;7;;
76548;SDS011;65391;52.068;4.542;2023-04-19T07:14:14;13.8;;;7;;
76548;SDS011;65391;52.068;4.542;2023-04-19T07:16:40;9.5;;;6.3;;
76548;SDS011;65391;52.068;4.542;2023-04-19T07:19:04;9.5;;;6.3;;
76548;SDS011;65391;52.068;4.542;2023-04-19T07:21:29;9.5;;;6.3;;
76548;SDS011;65391;52.068;4.542;2023-04-19T07:23:54;9.5;;;6.3;;
76548;SDS011;65391;52.068;4.542;2023-04-19T07:26:19;16.1;;;8.2;;
76548;SDS011;65391;52.068;4.542;2023-04-19T07:28:44;16.1;;;8.2;;
76548;SDS011;65391;52.068;4.542;2023-04-19T07:31:13;16.1;;;8.2;;
76548;SDS011;65391;52.068;4.542;2023-04-19T07:33:34;16.1;;;8.2;;
76548;SDS011;65391;52.068;4.542;2023-04-19T07:35:59;14;;;5.9;;
76548;SDS011;65391;52.068;4.542;2023-04-19T07:38:24;14;;;5.9;;
76548;SDS011;65391;52.068;4.542;2023-04-19T07:40:49;14;;;5.9;;
76548;SDS011;65391;52.068;4.542;2023-04-19T07:43:14;14;;;5.9;;
76548;SDS011;65391;52.068;4.542;2023-04-19T07:45:39;9.2;;;6.1;;
76548;SDS011;65391;52.068;4.542;2023-04-19T07:48:04;9.2;;;6.1;;
76548;SDS011;65391;52.068;4.542;2023-04-19T07:50:29;9.2;;;6.1;;
76548;SDS011;65391;52.068;4.542;2023-04-19T07:52:54;9.2;;;6.1;;
76548;SDS011;65391;52.068;4.542;2023-04-19T07:55:19;9.1;;;5.9;;
76548;SDS011;65391;52.068;4.542;2023-04-19T07:57:44;9.1;;;5.9;;
76548;SDS011;65391;52.068;4.542;2023-04-19T08:00:10;9.1;;;5.9;;
76548;SDS011;65391;52.068;4.542;2023-04-19T08:02:34;9.1;;;5.9;;
76548;SDS011;65391;52.068;4.542;2023-04-19T08:04:59;10.9;;;5.7;;
76548;SDS011;65391;52.068;4.542;2023-04-19T08:07:24;10.9;;;5.7;;
76548;SDS011;65391;52.068;4.542;2023-04-19T08:09:49;10.9;;;5.7;;
76548;SDS011;65391;52.068;4.542;2023-04-19T08:12:14;10.9;;;5.7;;
76548;SDS011;65391;52.068;4.542;2023-04-19T08:14:39;8.1;;;5.7;;
76548;SDS011;65391;52.068;4.542;2023-04-19T08:17:04;8.1;;;5.7;;
76548;SDS011;65391;52.068;4.542;2023-04-19T08:19:29;8.1;;;5.7;;
76548;SDS011;65391;52.068;4.542;2023-04-19T08:21:54;8.1;;;5.7;;
76548;SDS011;65391;52.068;4.542;2023-04-19T08:24:19;8.1;;;5.7;;
76548;SDS011;65391;52.068;4.542;2023-04-19T08:26:44;10.8;;;5.4;;
76548;SDS011;65391;52.068;4.542;2023-04-19T08:29:09;10.8;;;5.4;;
76548;SDS011;65391;52.068;4.542;2023-04-19T08:31:34;10.8;;;5.4;;
76548;SDS011;65391;52.068;4.542;2023-04-19T08:33:59;10.8;;;5.4;;
76548;SDS011;65391;52.068;4.542;2023-04-19T08:36:24;6.8;;;5;;
76548;SDS011;65391;52.068;4.542;2023-04-19T08:38:49;6.8;;;5;;
76548;SDS011;65391;52.068;4.542;2023-04-19T08:41:14;6.8;;;5;;
76548;SDS011;65391;52.068;4.542;2023-04-19T08:43:39;6.8;;;5;;
76548;SDS011;65391;52.068;4.542;2023-04-19T08:46:04;8.5;;;4.2;;
76548;SDS011;65391;52.068;4.542;2023-04-19T08:48:29;8.5;;;4.2;;
76548;SDS011;65391;52.068;4.542;2023-04-19T08:50:55;8.5;;;4.2;;
76548;SDS011;65391;52.068;4.542;2023-04-19T08:53:19;8.5;;;4.2;;
76548;SDS011;65391;52.068;4.542;2023-04-19T08:55:44;7.9;;;4.1;;
76548;SDS011;65391;52.068;4.542;2023-04-19T08:58:09;7.9;;;4.1;;
76548;SDS011;65391;52.068;4.542;2023-04-19T09:00:37;7.9;;;4.1;;
76548;SDS011;65391;52.068;4.542;2023-04-19T09:02:59;7.9;;;4.1;;
76548;SDS011;65391;52.068;4.542;2023-04-19T09:05:24;5.6;;;3;;
76548;SDS011;65391;52.068;4.542;2023-04-19T09:07:49;5.6;;;3;;
76548;SDS011;65391;52.068;4.542;2023-04-19T09:10:15;5.6;;;3;;
76548;SDS011;65391;52.068;4.542;2023-04-19T09:12:39;5.6;;;3;;
76548;SDS011;65391;52.068;4.542;2023-04-19T09:15:06;9;;;3.1;;
76548;SDS011;65391;52.068;4.542;2023-04-19T09:17:29;9;;;3.1;;
76548;SDS011;65391;52.068;4.542;2023-04-19T09:19:54;9;;;3.1;;
76548;SDS011;65391;52.068;4.542;2023-04-19T09:22:19;9;;;3.1;;
76548;SDS011;65391;52.068;4.542;2023-04-19T09:24:44;5.2;;;3.5;;
76548;SDS011;65391;52.068;4.542;2023-04-19T09:27:09;5.2;;;3.5;;
76548;SDS011;65391;52.068;4.542;2023-04-19T09:29:34;5.2;;;3.5;;
76548;SDS011;65391;52.068;4.542;2023-04-19T09:31:59;5.2;;;3.5;;
76548;SDS011;65391;52.068;4.542;2023-04-19T09:34:24;5.2;;;3.5;;
76548;SDS011;65391;52.068;4.542;2023-04-19T09:36:49;6.5;;;3.4;;
76548;SDS011;65391;52.068;4.542;2023-04-19T09:39:26;6.5;;;3.4;;
76548;SDS011;65391;52.068;4.542;2023-04-19T09:41:49;6.5;;;3.4;;
76548;SDS011;65391;52.068;4.542;2023-04-19T09:44:08;6.5;;;3.4;;
76548;SDS011;65391;52.068;4.542;2023-04-19T09:46:30;8.8;;;2.6;;
76548;SDS011;65391;52.068;4.542;2023-04-19T09:48:55;8.8;;;2.6;;
76548;SDS011;65391;52.068;4.542;2023-04-19T09:51:20;8.8;;;2.6;;
76548;SDS011;65391;52.068;4.542;2023-04-19T09:53:45;8.8;;;2.6;;
76548;SDS011;65391;52.068;4.542;2023-04-19T09:56:09;4.5;;;2.6;;
76548;SDS011;65391;52.068;4.542;2023-04-19T09:58:34;4.5;;;2.6;;
76548;SDS011;65391;52.068;4.542;2023-04-19T10:00:59;4.5;;;2.6;;
76548;SDS011;65391;52.068;4.542;2023-04-19T10:03:24;4.5;;;2.6;;
76548;SDS011;65391;52.068;4.542;2023-04-19T10:05:49;4.6;;;2.3;;
76548;SDS011;65391;52.068;4.542;2023-04-19T10:08:14;4.6;;;2.3;;
76548;SDS011;65391;52.068;4.542;2023-04-19T10:10:39;4.6;;;2.3;;
76548;SDS011;65391;52.068;4.542;2023-04-19T10:13:06;4.6;;;2.3;;
76548;SDS011;65391;52.068;4.542;2023-04-19T10:15:30;10.4;;;2.3;;
76548;SDS011;65391;52.068;4.542;2023-04-19T10:17:54;10.4;;;2.3;;
76548;SDS011;65391;52.068;4.542;2023-04-19T10:20:22;10.4;;;2.3;;
76548;SDS011;65391;52.068;4.542;2023-04-19T10:22:44;10.4;;;2.3;;
76548;SDS011;65391;52.068;4.542;2023-04-19T10:25:10;2.5;;;1.8;;
76548;SDS011;65391;52.068;4.542;2023-04-19T10:27:34;2.5;;;1.8;;
76548;SDS011;65391;52.068;4.542;2023-04-19T10:30:00;2.5;;;1.8;;
76548;SDS011;65391;52.068;4.542;2023-04-19T10:32:26;2.5;;;1.8;;
76548;SDS011;65391;52.068;4.542;2023-04-19T10:34:50;5.6;;;1.8;;
76548;SDS011;65391;52.068;4.542;2023-04-19T10:37:15;5.6;;;1.8;;
76548;SDS011;65391;52.068;4.542;2023-04-19T10:39:41;5.6;;;1.8;;
76548;SDS011;65391;52.068;4.542;2023-04-19T10:42:04;5.6;;;1.8;;
76548;SDS011;65391;52.068;4.542;2023-04-19T10:44:30;5.6;;;1.8;;
76548;SDS011;65391;52.068;4.542;2023-04-19T10:46:54;2.5;;;1.5;;
76548;SDS011;65391;52.068;4.542;2023-04-19T10:49:19;2.5;;;1.5;;
76548;SDS011;65391;52.068;4.542;2023-04-19T10:51:47;2.5;;;1.5;;
76548;SDS011;65391;52.068;4.542;2023-04-19T10:54:26;2.5;;;1.5;;
76548;SDS011;65391;52.068;4.542;2023-04-19T10:57:07;3.1;;;1.7;;
76548;SDS011;65391;52.068;4.542;2023-04-19T10:59:15;3.1;;;1.7;;
76548;SDS011;65391;52.068;4.542;2023-04-19T11:01:32;3.1;;;1.7;;
76548;SDS011;65391;52.068;4.542;2023-04-19T11:03:50;3.1;;;1.7;;
76548;SDS011;65391;52.068;4.542;2023-04-19T11:06:15;3.2;;;1.7;;
76548;SDS011;65391;52.068;4.542;2023-04-19T11:08:41;3.2;;;1.7;;
76548;SDS011;65391;52.068;4.542;2023-04-19T11:11:05;3.2;;;1.7;;
76548;SDS011;65391;52.068;4.542;2023-04-19T11:13:30;3.2;;;1.7;;
76548;SDS011;65391;52.068;4.542;2023-04-19T11:15:57;6.5;;;2;;
76548;SDS011;65391;52.068;4.542;2023-04-19T11:18:20;6.5;;;2;;
76548;SDS011;65391;52.068;4.542;2023-04-19T11:20:45;6.5;;;2;;
76548;SDS011;65391;52.068;4.542;2023-04-19T11:23:15;6.5;;;2;;
76548;SDS011;65391;52.068;4.542;2023-04-19T11:25:35;4.9;;;2.4;;
76548;SDS011;65391;52.068;4.542;2023-04-19T11:28:00;4.9;;;2.4;;
76548;SDS011;65391;52.068;4.542;2023-04-19T11:30:27;4.9;;;2.4;;
76548;SDS011;65391;52.068;4.542;2023-04-19T11:32:51;4.9;;;2.4;;
76548;SDS011;65391;52.068;4.542;2023-04-19T11:35:18;3.6;;;1.7;;
76548;SDS011;65391;52.068;4.542;2023-04-19T11:37:40;3.6;;;1.7;;
76548;SDS011;65391;52.068;4.542;2023-04-19T11:40:05;3.6;;;1.7;;
76548;SDS011;65391;52.068;4.542;2023-04-19T11:42:30;3.6;;;1.7;;
76548;SDS011;65391;52.068;4.542;2023-04-19T11:44:55;2.8;;;2;;
76548;SDS011;65391;52.068;4.542;2023-04-19T11:47:20;2.8;;;2;;
76548;SDS011;65391;52.068;4.542;2023-04-19T11:49:45;2.8;;;2;;
76548;SDS011;65391;52.068;4.542;2023-04-19T11:52:10;2.8;;;2;;
76548;SDS011;65391;52.068;4.542;2023-04-19T11:54:35;2.8;;;2;;
76548;SDS011;65391;52.068;4.542;2023-04-19T11:57:00;2.5;;;1.6;;
76548;SDS011;65391;52.068;4.542;2023-04-19T11:59:25;2.5;;;1.6;;
76548;SDS011;65391;52.068;4.542;2023-04-19T12:01:50;2.5;;;1.6;;
76548;SDS011;65391;52.068;4.542;2023-04-19T12:04:15;2.5;;;1.6;;
76548;SDS011;65391;52.068;4.542;2023-04-19T12:06:40;2.9;;;1.6;;
76548;SDS011;65391;52.068;4.542;2023-04-19T12:09:06;2.9;;;1.6;;
76548;SDS011;65391;52.068;4.542;2023-04-19T12:11:41;2.9;;;1.6;;
76548;SDS011;65391;52.068;4.542;2023-04-19T12:14:07;2.9;;;1.6;;
76548;SDS011;65391;52.068;4.542;2023-04-19T12:16:26;2.6;;;1.8;;
76548;SDS011;65391;52.068;4.542;2023-04-19T12:18:45;2.6;;;1.8;;
76548;SDS011;65391;52.068;4.542;2023-04-19T12:21:10;2.6;;;1.8;;
76548;SDS011;65391;52.068;4.542;2023-04-19T12:23:35;2.6;;;1.8;;
76548;SDS011;65391;52.068;4.542;2023-04-19T12:26:01;4.3;;;1.9;;
76548;SDS011;65391;52.068;4.542;2023-04-19T12:28:25;4.3;;;1.9;;
76548;SDS011;65391;52.068;4.542;2023-04-19T12:30:50;4.3;;;1.9;;
76548;SDS011;65391;52.068;4.542;2023-04-19T12:33:15;4.3;;;1.9;;
76548;SDS011;65391;52.068;4.542;2023-04-19T12:35:40;2.5;;;1.9;;
76548;SDS011;65391;52.068;4.542;2023-04-19T12:38:05;2.5;;;1.9;;
76548;SDS011;65391;52.068;4.542;2023-04-19T12:40:30;2.5;;;1.9;;
76548;SDS011;65391;52.068;4.542;2023-04-19T12:42:55;2.5;;;1.9;;
76548;SDS011;65391;52.068;4.542;2023-04-19T12:45:20;4.2;;;2.2;;
76548;SDS011;65391;52.068;4.542;2023-04-19T12:47:45;4.2;;;2.2;;
76548;SDS011;65391;52.068;4.542;2023-04-19T12:50:11;4.2;;;2.2;;
76548;SDS011;65391;52.068;4.542;2023-04-19T12:52:35;4.2;;;2.2;;
76548;SDS011;65391;52.068;4.542;2023-04-19T12:55:00;3.9;;;2.2;;
76548;SDS011;65391;52.068;4.542;2023-04-19T12:57:25;3.9;;;2.2;;
76548;SDS011;65391;52.068;4.542;2023-04-19T12:59:50;3.9;;;2.2;;
76548;SDS011;65391;52.068;4.542;2023-04-19T13:02:15;3.9;;;2.2;;
76548;SDS011;65391;52.068;4.542;2023-04-19T13:04:40;3.9;;;2.2;;
76548;SDS011;65391;52.068;4.542;2023-04-19T13:07:05;3.6;;;2.2;;
76548;SDS011;65391;52.068;4.542;2023-04-19T13:09:30;3.6;;;2.2;;
76548;SDS011;65391;52.068;4.542;2023-04-19T13:11:55;3.6;;;2.2;;
76548;SDS011;65391;52.068;4.542;2023-04-19T13:14:20;3.6;;;2.2;;
76548;SDS011;65391;52.068;4.542;2023-04-19T13:16:45;4;;;2.4;;
76548;SDS011;65391;52.068;4.542;2023-04-19T13:19:10;4;;;2.4;;
76548;SDS011;65391;52.068;4.542;2023-04-19T13:21:35;4;;;2.4;;
76548;SDS011;65391;52.068;4.542;2023-04-19T13:24:00;4;;;2.4;;
76548;SDS011;65391;52.068;4.542;2023-04-19T13:26:26;4.7;;;2.6;;
76548;SDS011;65391;52.068;4.542;2023-04-19T13:28:50;4.7;;;2.6;;
76548;SDS011;65391;52.068;4.542;2023-04-19T13:31:15;4.7;;;2.6;;
76548;SDS011;65391;52.068;4.542;2023-04-19T13:33:40;4.7;;;2.6;;
76548;SDS011;65391;52.068;4.542;2023-04-19T13:36:05;4.4;;;2.6;;
76548;SDS011;65391;52.068;4.542;2023-04-19T13:38:30;4.4;;;2.6;;
76548;SDS011;65391;52.068;4.542;2023-04-19T13:40:55;4.4;;;2.6;;
76548;SDS011;65391;52.068;4.542;2023-04-19T13:43:20;4.4;;;2.6;;
76548;SDS011;65391;52.068;4.542;2023-04-19T13:45:45;4.4;;;2.7;;
76548;SDS011;65391;52.068;4.542;2023-04-19T13:48:10;4.4;;;2.7;;
76548;SDS011;65391;52.068;4.542;2023-04-19T13:50:35;4.4;;;2.7;;
76548;SDS011;65391;52.068;4.542;2023-04-19T13:53:00;4.4;;;2.7;;
76548;SDS011;65391;52.068;4.542;2023-04-19T13:55:25;3.5;;;2.5;;
76548;SDS011;65391;52.068;4.542;2023-04-19T13:57:50;3.5;;;2.5;;
76548;SDS011;65391;52.068;4.542;2023-04-19T14:00:15;3.5;;;2.5;;
76548;SDS011;65391;52.068;4.542;2023-04-19T14:02:40;3.5;;;2.5;;
76548;SDS011;65391;52.068;4.542;2023-04-19T14:05:05;7.2;;;2.9;;
76548;SDS011;65391;52.068;4.542;2023-04-19T14:07:30;7.2;;;2.9;;
76548;SDS011;65391;52.068;4.542;2023-04-19T14:09:55;7.2;;;2.9;;
76548;SDS011;65391;52.068;4.542;2023-04-19T14:12:20;7.2;;;2.9;;
76548;SDS011;65391;52.068;4.542;2023-04-19T14:14:45;7.2;;;2.9;;
76548;SDS011;65391;52.068;4.542;2023-04-19T14:17:10;4.7;;;2;;
76548;SDS011;65391;52.068;4.542;2023-04-19T14:19:35;4.7;;;2;;
76548;SDS011;65391;52.068;4.542;2023-04-19T14:22:00;4.7;;;2;;
76548;SDS011;65391;52.068;4.542;2023-04-19T14:24:25;4.7;;;2;;
76548;SDS011;65391;52.068;4.542;2023-04-19T14:26:50;4.4;;;2.7;;
76548;SDS011;65391;52.068;4.542;2023-04-19T14:29:15;4.4;;;2.7;;
76548;SDS011;65391;52.068;4.542;2023-04-19T14:31:40;4.4;;;2.7;;
76548;SDS011;65391;52.068;4.542;2023-04-19T14:34:05;4.4;;;2.7;;
76548;SDS011;65391;52.068;4.542;2023-04-19T14:36:30;3.7;;;2.3;;
76548;SDS011;65391;52.068;4.542;2023-04-19T14:38:55;3.7;;;2.3;;
76548;SDS011;65391;52.068;4.542;2023-04-19T14:41:20;3.7;;;2.3;;
76548;SDS011;65391;52.068;4.542;2023-04-19T14:43:45;3.7;;;2.3;;
76548;SDS011;65391;52.068;4.542;2023-04-19T14:46:10;4.3;;;2.2;;
76548;SDS011;65391;52.068;4.542;2023-04-19T14:48:35;4.3;;;2.2;;
76548;SDS011;65391;52.068;4.542;2023-04-19T14:51:00;4.3;;;2.2;;
76548;SDS011;65391;52.068;4.542;2023-04-19T14:53:25;4.3;;;2.2;;
76548;SDS011;65391;52.068;4.542;2023-04-19T14:55:50;5.4;;;3.2;;
76548;SDS011;65391;52.068;4.542;2023-04-19T14:58:15;5.4;;;3.2;;
76548;SDS011;65391;52.068;4.542;2023-04-19T15:00:40;5.4;;;3.2;;